This is the latest recevied weather packets stored in our database for station/object KN6CRX. If no packets are shown the sender has not sent any weather packets the latest 10 day(s).
| Time | Temp. | Humidity | Pressure | Rain* | Wind** | Luminosity | Snow |
|---|---|---|---|---|---|---|---|
| 1787702891 | 27.78° C | 29% | 1023.6 hPa | 0 mm | - | 82 W/m² | - |
| 1787702586 | 28.89° C | 29% | 1023.6 hPa | 0 mm | - | 78 W/m² | - |
| 1787702287 | 29.44° C | 28% | 1023.3 hPa | 0 mm | - | 89 W/m² | - |
| 1787701986 | 29.44° C | 27% | 1023.1 hPa | 0 mm | - | 98 W/m² | - |
| 1787701683 | 30° C | 25% | 1023.2 hPa | 0 mm | - | 112 W/m² | - |
| 1787701378 | 30° C | 24% | 1023.1 hPa | 0 mm | - | 115 W/m² | - |
| 1787701073 | 30° C | 25% | 1023 hPa | 0 mm | - | 109 W/m² | - |
| 1787700768 | 30.56° C | 26% | 1022.9 hPa | 0 mm | - | 85 W/m² | - |
| 1787700465 | 31.11° C | 25% | 1023.2 hPa | 0 mm | - | 91 W/m² | - |
| 1787700161 | 31.67° C | 25% | 1023.2 hPa | 0 mm | - | 87 W/m² | - |
| 1787699857 | 32.78° C | 23% | 1023 hPa | 0 mm | - | 102 W/m² | - |
| 1787699557 | 32.22° C | 24% | 1023.1 hPa | 0 mm | - | 135 W/m² | - |
| 1787699253 | 32.22° C | 22% | 1023.1 hPa | 0 mm | - | 168 W/m² | - |
| 1787698949 | 31.67° C | 24% | 1023 hPa | 0 mm | - | 231 W/m² | - |
| 1787698649 | 32.22° C | 24% | 1023.2 hPa | 0 mm | - | 191 W/m² | - |
| 1787698345 | 33.89° C | 21% | 1023.1 hPa | 0 mm | - | 186 W/m² | - |
| 1787698041 | 33.89° C | 21% | 1023 hPa | 0 mm | - | 253 W/m² | - |
| 1787697740 | 34.44° C | 21% | 1023.3 hPa | 0 mm | - | 249 W/m² | - |
| 1787697436 | 33.89° C | 22% | 1023.3 hPa | 0 mm | - | 568 W/m² | - |
| 1787697131 | 33.33° C | 23% | 1023.2 hPa | 0 mm | - | 584 W/m² | - |
| 1787696827 | 32.78° C | 23% | 1023.5 hPa | 0 mm | - | 641 W/m² | - |
| 1787696523 | 31.67° C | 24% | 1023.6 hPa | 0 mm | - | 731 W/m² | - |
| 1787696218 | 31.11° C | 26% | 1023.5 hPa | 0 mm | - | 521 W/m² | - |
| 1787695917 | 30.56° C | 27% | 1023.7 hPa | 0 mm | - | 188 W/m² | - |
| 1787695612 | 30.56° C | 26% | 1023.7 hPa | 0 mm | - | 186 W/m² | - |
* Rain latest hour (hover to see other rain measurements)
** Current wind speed in m/s (hover to see current wind gust speed)